Heppner, South Dakota
Current Conditions -  °F | °C
As of 5:53 PM on Sunday 23 Nov 2014 (Local Time) from KCUT Reporting Station
Broken Clouds Broken Clouds  
Wind Chill: 15°   Ceiling: 4600
Heat Index: 27°   Visibility: 10mi
Dew Point: 14°   Wind: 16mph
Humidity: 58%   Direction: 300°WNW
Pressure: 29.69"   Gusts: 31mph
Location:  43.346°N, 103.483°W
Report Text: KCUT 240053Z AUTO 30014G27KT 10SM FEW036 BKN046 M03/M10 A2969 RMK AO2 PK WND 28032/0002 SLP082 T10281100
Loading
Personal Weather Stations






























Interactive Weather Map New forecast layout! Learn more

10-Day Weather Forecast

Advertisements
Track Severe Weather on mobile